Time;durP1;ratioP1;P1;durP2;ratioP2;P2;SDS_P1;SDS_P2;PMS_P1;PMS_P2;Temp;Humidity;BMP_temperature;BMP_pressure;BME280_temperature;BME280_humidity;BME280_pressure;Samples;Min_cycle;Max_cycle;Signal;HPM_P1;HPM_P2
2021/04/01 00:01:50;;;;;;;45.22;26.70;;;14.90;61.00;;;;;;5074565;28;20430;-83
2021/04/01 00:04:16;;;;;;;45.33;26.33;;;14.90;61.40;;;;;;5060191;28;20040;-83
2021/04/01 00:06:42;;;;;;;42.88;25.13;;;15.00;61.70;;;;;;5075266;28;20032;-82
2021/04/01 00:09:08;;;;;;;46.90;25.73;;;14.90;61.60;;;;;;5074281;28;20094;-83
2021/04/01 00:11:33;;;;;;;52.25;28.85;;;14.90;61.70;;;;;;5073117;28;20028;-83
2021/04/01 00:14:02;;;;;;;59.75;29.73;;;14.90;61.40;;;;;;5037263;28;20037;-83
2021/04/01 00:16:29;;;;;;;54.03;29.55;;;14.90;61.40;;;;;;5055251;28;20021;-82
2021/04/01 00:18:55;;;;;;;55.03;30.55;;;14.90;61.20;;;;;;5053925;28;20120;-83
2021/04/01 00:21:20;;;;;;;52.72;30.40;;;14.80;61.40;;;;;;5055172;28;20092;-82
2021/04/01 00:23:46;;;;;;;55.13;30.65;;;14.70;61.60;;;;;;5055122;28;20420;-83
2021/04/01 00:26:11;;;;;;;51.13;29.20;;;14.70;61.70;;;;;;5055112;28;20535;-83
2021/04/01 00:28:37;;;;;;;49.55;28.75;;;14.70;61.70;;;;;;5053817;28;20028;-83
2021/04/01 00:31:03;;;;;;;52.08;29.58;;;14.60;61.50;;;;;;5055079;28;20104;-83
2021/04/01 00:33:28;;;;;;;52.58;30.92;;;14.60;61.10;;;;;;5055404;28;20378;-83
2021/04/01 00:35:54;;;;;;;57.38;31.38;;;14.60;61.10;;;;;;5053659;28;20021;-83
2021/04/01 00:38:19;;;;;;;52.85;28.88;;;14.60;61.10;;;;;;5020478;28;20026;-83
2021/04/01 00:40:45;;;;;;;54.15;31.48;;;14.60;61.00;;;;;;5053468;28;20120;-83
2021/04/01 00:43:11;;;;;;;53.00;32.05;;;14.60;61.20;;;;;;5058434;28;20047;-83
2021/04/01 00:45:36;;;;;;;54.60;31.50;;;14.50;61.50;;;;;;5073414;28;20028;-83
2021/04/01 00:48:02;;;;;;;51.75;30.40;;;14.50;61.60;;;;;;5074648;28;20041;-83
2021/04/01 00:50:30;;;;;;;52.78;30.15;;;14.50;61.60;;;;;;5074554;28;20035;-83
2021/04/01 00:52:57;;;;;;;58.78;31.15;;;14.50;61.80;;;;;;5074603;28;20455;-83
2021/04/01 00:55:23;;;;;;;50.40;28.95;;;14.40;62.00;;;;;;5074443;28;20032;-83
2021/04/01 00:57:51;;;;;;;48.35;29.40;;;14.40;62.40;;;;;;5074494;28;20049;-83
2021/04/01 01:00:21;;;;;;;55.17;31.50;;;14.40;62.70;;;;;;5073326;28;20024;-83
2021/04/01 01:02:46;;;;;;;52.92;30.75;;;14.40;62.90;;;;;;5072989;28;20032;-83
2021/04/01 01:05:14;;;;;;;56.28;31.90;;;14.30;63.10;;;;;;5056323;28;20024;-82
2021/04/01 01:07:40;;;;;;;60.38;32.97;;;14.30;63.50;;;;;;5072265;28;20478;-83
2021/04/01 01:10:12;;;;;;;61.50;32.40;;;14.30;63.90;;;;;;5056335;28;20040;-82
2021/04/01 01:12:39;;;;;;;55.42;31.67;;;14.30;64.20;;;;;;5073956;28;20111;-83
2021/04/01 01:15:06;;;;;;;53.78;31.42;;;14.20;64.00;;;;;;5072696;28;20029;-82
2021/04/01 01:17:33;;;;;;;67.03;31.48;;;14.20;64.00;;;;;;5074081;28;20020;-83
2021/04/01 01:19:58;;;;;;;54.28;32.17;;;14.20;64.20;;;;;;5072861;28;20033;-83
2021/04/01 01:22:25;;;;;;;56.15;31.13;;;14.20;64.40;;;;;;5072625;28;20055;-83
2021/04/01 01:24:51;;;;;;;51.92;29.45;;;14.20;64.60;;;;;;5072647;28;20105;-83
2021/04/01 01:27:17;;;;;;;53.60;29.02;;;14.20;64.70;;;;;;5073059;28;20033;-83
2021/04/01 01:29:50;;;;;;;51.05;28.23;;;14.20;64.90;;;;;;5073896;28;20100;-83
2021/04/01 01:32:18;;;;;;;55.60;29.90;;;14.20;65.20;;;;;;5073482;28;20626;-83
2021/04/01 01:34:47;;;;;;;61.65;34.08;;;14.20;65.80;;;;;;5073710;28;20020;-83
2021/04/01 01:37:13;;;;;;;;;;;14.20;66.00;;;;;;5072889;28;20029;-83
2021/04/01 01:39:39;;;;;;;65.82;33.00;;;14.20;65.80;;;;;;5073707;28;19909;-83
2021/04/01 01:42:05;;;;;;;60.63;32.70;;;14.10;66.20;;;;;;5073877;28;20033;-82
2021/04/01 01:44:31;;;;;;;77.80;37.63;;;14.10;65.30;;;;;;5073313;28;20149;-83
2021/04/01 01:46:58;;;;;;;82.45;40.20;;;14.10;65.10;;;;;;5069393;28;20101;-82
2021/04/01 01:49:24;;;;;;;83.00;40.33;;;14.20;64.90;;;;;;5053543;28;20032;-82
2021/04/01 01:51:50;;;;;;;67.13;35.65;;;14.10;64.80;;;;;;5054309;28;20033;-83
2021/04/01 01:54:16;;;;;;;64.78;35.05;;;14.10;64.60;;;;;;5071008;28;20024;-83
2021/04/01 01:56:42;;;;;;;62.65;35.72;;;14.00;64.30;;;;;;5073394;28;20032;-82
2021/04/01 01:59:08;;;;;;;63.45;35.83;;;14.00;64.10;;;;;;5073543;28;20024;-83
2021/04/01 02:01:34;;;;;;;64.65;33.47;;;14.00;64.30;;;;;;5066244;28;20477;-83
2021/04/01 02:04:05;;;;;;;59.72;33.20;;;14.00;64.50;;;;;;5055613;28;20028;-83
2021/04/01 02:06:31;;;;;;;54.17;30.98;;;14.00;64.50;;;;;;5073363;28;20488;-83
2021/04/01 02:08:59;;;;;;;60.65;32.58;;;13.90;64.40;;;;;;5072053;28;20029;-82
2021/04/01 02:11:25;;;;;;;56.30;31.85;;;13.90;64.30;;;;;;5073259;28;20123;-83
2021/04/01 02:13:52;;;;;;;54.65;32.00;;;13.90;64.40;;;;;;5073595;28;20044;-83
2021/04/01 02:16:18;;;;;;;55.25;32.83;;;13.80;64.40;;;;;;5068347;28;20036;-83
2021/04/01 02:18:43;;;;;;;55.50;31.80;;;13.80;64.50;;;;;;5073179;28;20025;-83
2021/04/01 02:21:10;;;;;;;54.45;32.58;;;13.80;64.80;;;;;;5053557;28;20029;-83
2021/04/01 02:23:36;;;;;;;63.15;33.47;;;13.70;65.00;;;;;;5051756;28;20504;-83
2021/04/01 02:26:05;;;;;;;56.22;32.17;;;13.70;65.30;;;;;;5051890;28;20119;-83
2021/04/01 02:28:33;;;;;;;61.40;33.78;;;13.60;65.70;;;;;;5053233;28;20021;-83
2021/04/01 02:31:09;;;;;;;59.23;31.67;;;13.60;65.90;;;;;;5053101;28;20033;-82
2021/04/01 02:33:38;;;;;;;58.10;31.98;;;13.50;65.80;;;;;;5035004;28;20036;-82
2021/04/01 02:36:05;;;;;;;54.92;32.50;;;13.50;65.50;;;;;;5070072;28;20054;-82
2021/04/01 02:38:31;;;;;;;62.15;32.67;;;13.50;65.20;;;;;;5072928;28;20120;-83
2021/04/01 02:40:57;;;;;;;55.75;32.42;;;13.60;65.00;;;;;;5072994;28;20113;-83
2021/04/01 02:43:32;;;;;;;59.38;32.13;;;13.60;64.90;;;;;;5051315;28;20083;-83
2021/04/01 02:45:58;;;;;;;60.95;31.13;;;13.60;65.00;;;;;;5053078;28;20032;-83
2021/04/01 02:48:24;;;;;;;66.68;34.35;;;13.60;65.00;;;;;;5052844;28;20032;-83
2021/04/01 02:50:49;;;;;;;62.90;34.45;;;13.60;64.90;;;;;;5051640;28;20037;-82
2021/04/01 02:53:15;;;;;;;67.18;35.90;;;13.60;64.90;;;;;;5051560;28;20040;-82
2021/04/01 02:55:41;;;;;;;75.03;36.47;;;13.60;65.10;;;;;;5052926;28;20029;-82
2021/04/01 02:58:06;;;;;;;66.20;37.58;;;13.60;65.20;;;;;;5051598;28;20103;-83
2021/04/01 03:00:34;;;;;;;66.22;38.92;;;13.60;65.60;;;;;;5051796;28;20021;-82
2021/04/01 03:03:06;;;;;;;72.57;40.47;;;13.60;65.70;;;;;;5051766;28;20029;-82
2021/04/01 03:05:31;;;;;;;75.00;43.00;;;13.60;65.60;;;;;;5051714;28;20040;-82
2021/04/01 03:07:57;;;;;;;78.15;43.55;;;13.60;65.40;;;;;;5052047;28;20108;-82
2021/04/01 03:10:23;;;;;;;80.40;44.47;;;13.60;65.40;;;;;;5034951;28;20029;-82
2021/04/01 03:12:48;;;;;;;72.25;40.97;;;13.60;65.70;;;;;;5052674;28;20033;-83
2021/04/01 03:15:14;;;;;;;70.53;39.67;;;13.50;65.80;;;;;;5051448;28;20053;-83
2021/04/01 03:17:41;;;;;;;71.72;36.95;;;13.50;65.70;;;;;;5052564;28;20032;-82
2021/04/01 03:20:08;;;;;;;61.60;35.50;;;13.50;65.70;;;;;;5052591;28;20021;-83
2021/04/01 03:22:35;;;;;;;62.53;33.58;;;13.50;65.90;;;;;;5051311;28;20381;-83
2021/04/01 03:25:01;;;;;;;61.80;33.92;;;13.50;65.90;;;;;;5051286;28;20039;-83
2021/04/01 03:27:27;;;;;;;58.40;33.47;;;13.50;66.00;;;;;;5052482;28;20037;-83
2021/04/01 03:30:06;;;;;;;61.40;33.22;;;13.50;65.90;;;;;;5052185;28;20061;-83
2021/04/01 03:32:39;;;;;;;60.53;32.13;;;13.50;65.90;;;;;;5054850;28;20402;-82
2021/04/01 03:35:08;;;;;;;54.28;31.60;;;13.40;65.90;;;;;;5054842;28;20017;-83
2021/04/01 03:37:34;;;;;;;53.33;31.40;;;13.40;65.90;;;;;;5056438;28;20449;-82
2021/04/01 03:40:00;;;;;;;52.20;31.17;;;13.40;65.90;;;;;;5054777;28;20057;-82
2021/04/01 03:42:26;;;;;;;60.40;32.35;;;13.40;66.00;;;;;;5054540;28;20435;-82
2021/04/01 03:44:52;;;;;;;64.40;34.53;;;13.40;66.10;;;;;;5087311;28;20241;-83
2021/04/01 03:47:18;;;;;;;61.10;33.47;;;13.40;66.20;;;;;;5078024;28;20122;-82
2021/04/01 03:49:44;;;;;;;61.70;33.55;;;13.40;66.40;;;;;;5096076;28;20128;-82
2021/04/01 03:52:10;;;;;;;57.75;33.00;;;13.30;66.40;;;;;;5095898;28;20036;-83
2021/04/01 03:54:35;;;;;;;53.92;32.10;;;13.30;66.30;;;;;;5095903;28;20073;-82
2021/04/01 03:57:02;;;;;;;62.60;33.28;;;13.30;66.30;;;;;;5061080;28;20473;-82
2021/04/01 03:59:34;;;;;;;55.90;32.58;;;13.30;66.20;;;;;;5077767;28;20032;-81
2021/04/01 04:02:16;;;;;;;54.30;31.08;;;13.30;66.10;;;;;;5095834;28;20104;-82
2021/04/01 04:05:04;;;;;;;67.45;32.55;;;13.20;66.00;;;;;;5077673;28;20032;-82
2021/04/01 04:15:14;;;;;;;60.20;32.70;;;13.10;66.30;;;;;;5095982;28;20518;-82
2021/04/01 04:17:40;;;;;;;66.20;32.55;;;13.00;66.40;;;;;;5095442;28;20028;-83
2021/04/01 04:20:07;;;;;;;53.75;32.28;;;13.00;66.50;;;;;;5077019;28;20110;-83
2021/04/01 04:22:34;;;;;;;56.55;33.13;;;13.00;66.60;;;;;;5095445;28;20043;-81
2021/04/01 04:25:01;;;;;;;54.15;32.58;;;13.00;66.70;;;;;;5060456;28;20123;-83
2021/04/01 04:30:08;;;;;;;55.60;32.60;;;12.90;66.90;;;;;;5095691;28;20028;-82
2021/04/01 04:32:34;;;;;;;51.33;32.00;;;12.80;67.00;;;;;;5095187;28;20108;-83
2021/04/01 04:35:01;;;;;;;56.78;33.15;;;12.80;67.20;;;;;;5095182;28;20085;-83
2021/04/01 04:37:27;;;;;;;56.65;32.20;;;12.80;67.30;;;;;;5077218;28;20392;-82
2021/04/01 04:39:53;;;;;;;59.40;34.10;;;12.60;67.40;;;;;;5095191;28;20022;-83
2021/04/01 04:42:19;;;;;;;55.50;32.40;;;12.70;67.80;;;;;;5093917;28;20024;-82
2021/04/01 04:44:44;;;;;;;61.88;32.05;;;12.60;67.70;;;;;;5076809;28;20571;-82
2021/04/01 04:47:10;;;;;;;53.92;31.92;;;12.60;67.90;;;;;;5053759;28;20032;-82
2021/04/01 04:49:35;;;;;;;62.03;32.22;;;12.50;68.10;;;;;;5036938;28;20057;-83
2021/04/01 04:52:01;;;;;;;56.22;32.15;;;12.50;68.30;;;;;;5054637;28;20072;-82
2021/04/01 04:54:31;;;;;;;54.03;31.45;;;12.40;68.40;;;;;;5054730;28;20032;-81
2021/04/01 04:57:05;;;;;;;51.03;31.00;;;12.40;68.70;;;;;;5067192;28;20064;-82
2021/04/01 05:05:08;;;;;;;54.88;32.50;;;12.30;69.10;;;;;;5053548;28;20094;-82
2021/04/01 05:07:33;;;;;;;59.72;34.00;;;12.30;69.10;;;;;;5054459;28;20060;-82
2021/04/01 05:09:59;;;;;;;60.83;33.78;;;12.20;69.20;;;;;;5054594;28;20029;-82
2021/04/01 05:12:25;;;;;;;56.20;32.13;;;12.20;69.40;;;;;;5053130;28;20064;-82
2021/04/01 05:14:50;;;;;;;62.78;33.50;;;12.20;69.70;;;;;;5054350;28;20428;-82
2021/04/01 05:17:18;;;;;;;60.95;34.20;;;12.10;69.80;;;;;;5036336;28;20029;-82
2021/04/01 05:19:45;;;;;;;59.45;33.38;;;12.10;70.00;;;;;;5053077;28;20482;-82
2021/04/01 05:22:15;;;;;;;59.97;33.72;;;12.00;70.20;;;;;;5054145;28;20040;-82
2021/04/01 05:24:41;;;;;;;65.22;35.45;;;12.00;70.30;;;;;;5047843;28;20029;-83
2021/04/01 05:27:11;;;;;;;59.55;33.97;;;12.00;70.60;;;;;;5034133;28;20071;-83
2021/04/01 05:29:57;;;;;;;66.85;35.70;;;11.90;70.90;;;;;;5033965;28;20498;-83
2021/04/01 05:32:26;;;;;;;62.05;35.30;;;11.80;70.90;;;;;;5033901;28;20072;-82
2021/04/01 05:34:52;;;;;;;69.00;35.95;;;11.90;71.10;;;;;;5016869;28;20116;-82
2021/04/01 05:37:19;;;;;;;61.80;34.70;;;11.80;71.10;;;;;;5016361;28;20423;-83
2021/04/01 05:39:46;;;;;;;59.95;33.45;;;11.80;71.20;;;;;;5033896;28;20048;-82
2021/04/01 05:42:14;;;;;;;57.65;33.92;;;11.80;71.20;;;;;;5033905;28;20486;-83
2021/04/01 05:44:43;;;;;;;55.65;32.88;;;11.80;71.30;;;;;;5061652;28;20090;-82
2021/04/01 06:01:13;;;;;;;61.00;32.97;;;12.00;71.40;;;;;;5073563;28;20540;-83
2021/04/01 06:06:35;;;;;;;54.90;29.30;;;12.00;71.40;;;;;;5073476;28;20028;-83
2021/04/01 06:09:03;;;;;;;56.67;31.58;;;12.10;71.50;;;;;;5089061;28;20044;-82
2021/04/01 06:11:30;;;;;;;59.03;33.08;;;12.10;71.60;;;;;;5055572;28;20432;-83
2021/04/01 06:14:08;;;;;;;61.55;33.90;;;12.10;71.60;;;;;;5073237;28;20033;-83
2021/04/01 06:16:41;;;;;;;64.25;34.10;;;12.20;71.80;;;;;;5073674;28;20501;-82
2021/04/01 06:19:12;;;;;;;60.15;33.25;;;12.20;71.90;;;;;;5055569;28;20031;-83
2021/04/01 06:21:47;;;;;;;60.95;34.88;;;12.20;71.80;;;;;;5076837;28;20032;-83
2021/04/01 06:24:25;;;;;;;70.80;34.72;;;12.30;71.70;;;;;;5075674;28;20077;-83
2021/04/01 06:26:56;;;;;;;64.70;35.45;;;12.40;71.30;;;;;;5093509;28;20020;-82
2021/04/01 06:29:23;;;;;;;59.50;34.22;;;12.40;71.10;;;;;;5093460;28;20481;-83
2021/04/01 06:31:52;;;;;;;56.28;32.15;;;12.50;71.10;;;;;;5075279;28;20059;-83
2021/04/01 06:34:30;;;;;;;67.95;33.22;;;12.50;70.90;;;;;;5093418;28;20020;-83
2021/04/01 06:36:57;;;;;;;70.28;33.40;;;12.60;70.70;;;;;;5093932;28;20097;-82
2021/04/01 06:39:23;;;;;;;71.53;31.48;;;12.60;70.40;;;;;;5093537;28;20024;-83
2021/04/01 06:42:02;;;;;;;71.03;31.80;;;12.70;70.30;;;;;;5075476;28;20033;-83
2021/04/01 06:44:31;;;;;;;;;;;12.80;70.10;;;;;;5093610;28;20123;-82
2021/04/01 06:47:08;;;;;;;68.32;33.17;;;12.80;69.70;;;;;;5093337;28;19904;-83
2021/04/01 06:49:57;;;;;;;73.18;32.28;;;12.90;69.90;;;;;;5093346;28;20039;-83
2021/04/01 06:52:29;;;;;;;88.22;34.95;;;13.00;69.70;;;;;;5093039;28;20020;-82
2021/04/01 06:55:23;;;;;;;64.78;33.75;;;13.10;69.40;;;;;;5093195;28;20016;-82
2021/04/01 07:03:26;;;;;;;70.03;35.20;;;13.50;68.70;;;;;;5085627;28;20066;-82
2021/04/01 07:05:57;;;;;;;63.53;34.85;;;13.60;68.50;;;;;;5078441;28;20396;-82
2021/04/01 07:11:25;;;;;;;67.03;35.20;;;13.90;68.10;;;;;;5097456;28;20392;-82
2021/04/01 07:13:55;;;;;;;71.70;35.20;;;14.00;68.10;;;;;;5079162;28;20024;-81
2021/04/01 07:19:27;;;;;;;67.40;34.15;;;14.30;66.90;;;;;;5080329;28;20020;-83
2021/04/01 07:47:37;;;;;;;67.93;33.47;;;15.80;59.60;;;;;;5076315;28;20016;-83
2021/04/01 07:50:28;;;;;;;69.90;32.50;;;16.00;59.40;;;;;;5076578;28;20050;-85
2021/04/01 07:52:58;;;;;;;61.05;29.48;;;16.20;58.60;;;;;;5066189;28;20037;-85
2021/04/01 08:00:36;;;;;;;63.53;29.02;;;16.60;58.00;;;;;;5056563;28;20359;-85
2021/04/01 08:03:07;;;;;;;68.07;32.15;;;16.80;57.50;;;;;;5055031;28;20032;-85
2021/04/01 08:05:35;;;;;;;58.95;28.88;;;16.90;57.60;;;;;;5076180;28;20031;-85
2021/04/01 08:08:08;;;;;;;60.13;28.58;;;17.00;57.80;;;;;;5070815;28;20036;-79
2021/04/01 08:10:42;;;;;;;62.88;27.50;;;17.20;57.70;;;;;;5051379;28;20469;-80
2021/04/01 08:13:12;;;;;;;72.65;29.02;;;17.30;57.10;;;;;;5050361;28;20032;-80
2021/04/01 08:15:45;;;;;;;61.88;26.08;;;17.40;56.90;;;;;;5051064;28;20351;-79
2021/04/01 08:18:21;;;;;;;63.75;26.38;;;17.50;56.80;;;;;;5066607;28;20025;-79
2021/04/01 08:20:51;;;;;;;61.28;25.52;;;17.60;56.60;;;;;;5051532;28;20028;-80
2021/04/01 08:23:21;;;;;;;63.50;27.80;;;17.70;56.30;;;;;;5050940;28;20017;-80
2021/04/01 08:36:23;;;;;;;61.58;24.77;;;18.30;55.90;;;;;;5050979;28;20066;-80
2021/04/01 08:38:49;;;;;;;68.38;26.45;;;18.40;55.20;;;;;;5049898;28;20033;-80
2021/04/01 08:41:41;;;;;;;58.40;22.55;;;18.50;55.00;;;;;;5049739;28;20095;-80
2021/04/01 08:44:44;;;;;;;53.33;23.27;;;18.60;54.80;;;;;;5041838;28;20378;-80
2021/04/01 08:47:28;;;;;;;51.33;22.13;;;18.70;54.50;;;;;;5071202;28;20032;-79
2021/04/01 08:50:26;;;;;;;60.95;24.85;;;18.70;54.40;;;;;;5070580;28;20024;-80
2021/04/01 08:53:12;;;;;;;64.60;25.92;;;18.80;54.60;;;;;;5070969;28;20060;-80
2021/04/01 08:56:24;;;;;;;57.22;24.45;;;18.90;54.60;;;;;;5070124;28;20107;-80
2021/04/01 08:59:28;;;;;;;66.63;25.48;;;19.00;54.60;;;;;;5070579;28;20024;-80
2021/04/01 09:01:57;;;;;;;62.97;27.60;;;19.20;54.00;;;;;;5062439;28;20548;-80
2021/04/01 09:04:23;;;;;;;;;;;19.30;53.80;;;;;;5069382;28;21213;-80
2021/04/01 09:06:53;;;;;;;66.30;27.20;;;19.30;53.60;;;;;;5068628;28;19991;-80
2021/04/01 09:09:32;;;;;;;71.63;28.73;;;19.40;53.90;;;;;;5073232;28;20022;-80
2021/04/01 09:12:13;;;;;;;62.35;26.10;;;19.50;53.40;;;;;;5073628;28;20027;-80
2021/04/01 09:14:45;;;;;;;61.35;25.98;;;19.50;53.20;;;;;;5074156;28;20432;-80
2021/04/01 09:17:12;;;;;;;64.22;25.25;;;19.60;53.20;;;;;;5073018;28;20438;-80
2021/04/01 09:19:39;;;;;;;54.20;24.13;;;19.70;53.10;;;;;;5074185;28;20408;-81
2021/04/01 09:22:22;;;;;;;63.33;26.05;;;19.80;52.60;;;;;;5072862;28;20021;-81
2021/04/01 09:25:03;;;;;;;56.03;24.15;;;19.80;52.40;;;;;;5073892;28;20093;-80
2021/04/01 09:27:29;;;;;;;53.95;24.13;;;19.90;52.30;;;;;;5073556;28;20028;-81
2021/04/01 09:30:06;;;;;;;53.78;23.55;;;20.00;51.60;;;;;;5072824;28;20035;-81
2021/04/01 09:32:34;;;;;;;55.90;23.02;;;20.10;51.30;;;;;;5073633;28;20032;-80
2021/04/01 09:35:01;;;;;;;44.97;18.50;;;20.20;51.40;;;;;;5074046;28;20381;-81
2021/04/01 09:37:28;;;;;;;47.72;19.70;;;20.30;49.90;;;;;;5072610;28;20447;-81
2021/04/01 09:39:55;;;;;;;42.47;18.20;;;20.30;50.20;;;;;;5072768;28;20042;-80
2021/04/01 09:42:21;;;;;;;45.38;19.38;;;20.30;49.40;;;;;;5073565;28;20536;-80
2021/04/01 09:44:57;;;;;;;51.33;19.33;;;20.40;48.50;;;;;;5059557;28;20118;-79
2021/04/01 09:47:41;;;;;;;43.60;17.40;;;20.50;47.80;;;;;;5053637;28;20025;-80
2021/04/01 09:50:11;;;;;;;46.70;19.80;;;20.60;48.00;;;;;;5042656;28;20033;-81
2021/04/01 09:52:39;;;;;;;44.90;19.23;;;20.70;48.00;;;;;;5053363;28;20367;-81
2021/04/01 09:55:13;;;;;;;47.25;20.13;;;20.80;47.80;;;;;;5052136;28;20029;-81
2021/04/01 09:57:49;;;;;;;48.08;18.95;;;20.90;47.90;;;;;;5053592;28;20017;-81
2021/04/01 10:03:36;;;;;;;41.00;18.45;;;21.00;47.10;;;;;;5053449;28;20032;-81
2021/04/01 10:06:01;;;;;;;50.10;21.15;;;21.00;46.80;;;;;;5041807;28;20106;-82
2021/04/01 10:08:32;;;;;;;52.42;20.80;;;21.00;46.80;;;;;;5053272;28;20462;-82
2021/04/01 10:11:07;;;;;;;52.35;20.95;;;21.00;46.50;;;;;;5052120;28;20035;-82
2021/04/01 10:13:33;;;;;;;55.30;22.35;;;21.00;46.80;;;;;;5053158;28;20033;-82
2021/04/01 10:15:59;;;;;;;55.08;21.55;;;21.00;46.80;;;;;;5052046;28;20371;-82
2021/04/01 10:18:33;;;;;;;59.28;23.95;;;21.10;46.70;;;;;;5053207;28;20049;-81
2021/04/01 10:21:02;;;;;;;52.47;20.55;;;21.10;46.60;;;;;;5051886;28;20032;-82
2021/04/01 10:23:28;;;;;;;60.95;23.95;;;21.20;46.50;;;;;;5052944;28;20021;-81
2021/04/01 10:26:09;;;;;;;62.15;25.50;;;21.20;46.10;;;;;;5051898;28;20482;-81
2021/04/01 10:28:42;;;;;;;72.80;31.17;;;21.30;46.30;;;;;;5050012;28;20449;-82
2021/04/01 10:31:18;;;;;;;75.85;31.33;;;21.30;46.70;;;;;;5036276;28;20033;-81
2021/04/01 10:34:05;;;;;;;62.05;27.33;;;21.30;46.90;;;;;;5051748;28;20490;-82
2021/04/01 10:36:32;;;;;;;77.47;32.15;;;21.30;47.30;;;;;;5051878;28;20048;-82
2021/04/01 10:39:10;;;;;;;75.57;33.33;;;21.30;47.00;;;;;;5051940;28;20021;-82
2021/04/01 10:41:47;;;;;;;66.85;30.40;;;21.20;47.40;;;;;;5057212;28;20385;-82
2021/04/01 10:44:13;;;;;;;77.63;33.30;;;21.20;48.10;;;;;;5055712;28;20044;-81
2021/04/01 10:46:56;;;;;;;68.97;31.67;;;21.20;47.40;;;;;;5039258;28;20049;-82
2021/04/01 10:49:37;;;;;;;71.97;32.95;;;21.20;47.10;;;;;;5055634;28;20535;-82
2021/04/01 10:52:13;;;;;;;74.13;34.55;;;21.30;47.70;;;;;;5056782;28;20044;-82
2021/04/01 10:54:46;;;;;;;78.65;34.00;;;21.40;46.40;;;;;;5040669;28;20037;-81
2021/04/01 10:57:30;;;;;;;78.55;35.97;;;21.30;46.40;;;;;;5056877;28;20017;-82
2021/04/01 10:59:58;;;;;;;75.47;34.08;;;21.30;47.20;;;;;;5057069;28;20075;-82
2021/04/01 11:02:33;;;;;;;70.55;33.63;;;21.40;46.80;;;;;;5056358;28;20393;-81
2021/04/01 11:05:04;;;;;;;76.18;34.13;;;21.50;47.10;;;;;;5055867;28;20029;-81
2021/04/01 11:07:43;;;;;;;68.85;31.67;;;21.70;46.90;;;;;;5055815;28;20082;-81
2021/04/01 11:10:09;;;;;;;;;;;21.80;47.40;;;;;;5055951;28;20040;-81
2021/04/01 11:12:36;;;;;;;73.80;33.50;;;21.90;46.50;;;;;;5055049;28;19908;-82
2021/04/01 11:15:06;;;;;;;65.70;31.02;;;22.00;45.30;;;;;;5056509;28;20025;-82
2021/04/01 11:17:39;;;;;;;66.47;31.15;;;22.10;44.30;;;;;;5055187;28;20389;-82
2021/04/01 11:20:06;;;;;;;67.07;31.52;;;22.10;43.50;;;;;;5055273;28;20063;-83
2021/04/01 11:22:32;;;;;;;71.07;33.30;;;22.10;43.30;;;;;;5056468;28;20028;-82
2021/04/01 11:25:08;;;;;;;69.07;34.10;;;22.10;43.30;;;;;;5056361;28;20025;-82
2021/04/01 11:27:35;;;;;;;66.40;33.42;;;22.20;43.20;;;;;;5056263;28;20116;-82
2021/04/01 11:30:01;;;;;;;69.38;33.90;;;22.30;43.10;;;;;;5056519;28;20044;-82
2021/04/01 11:32:29;;;;;;;68.72;33.75;;;22.30;43.30;;;;;;5056251;28;20033;-82
2021/04/01 11:34:58;;;;;;;79.30;38.38;;;22.40;43.00;;;;;;5056419;28;20025;-83
2021/04/01 11:37:26;;;;;;;69.25;33.80;;;22.50;42.90;;;;;;5056198;28;20033;-82
2021/04/01 11:40:04;;;;;;;74.60;37.60;;;22.50;43.00;;;;;;5056170;28;20386;-82
2021/04/01 11:42:31;;;;;;;76.20;38.65;;;22.50;42.60;;;;;;5056556;28;20103;-82
2021/04/01 11:44:58;;;;;;;78.55;38.00;;;22.40;42.70;;;;;;5084641;28;20044;-82
2021/04/01 11:47:25;;;;;;;75.13;36.20;;;22.30;42.70;;;;;;5096373;28;20019;-82
2021/04/01 11:49:52;;;;;;;76.95;40.20;;;22.20;43.10;;;;;;5096056;28;20054;-82
2021/04/01 11:52:21;;;;;;;86.10;44.20;;;22.20;43.20;;;;;;5095625;28;20086;-82
2021/04/01 11:54:47;;;;;;;;;;;22.20;43.60;;;;;;5078012;28;20036;-82
2021/04/01 11:57:20;;;;;;;74.78;40.15;;;22.20;43.60;;;;;;5077805;28;19958;-82
2021/04/01 12:00:17;;;;;;;82.13;44.55;;;22.30;43.70;;;;;;5095959;28;20081;-82
2021/04/01 12:03:22;;;;;;;70.07;41.72;;;22.30;43.90;;;;;;5094459;28;20034;-82
2021/04/01 12:05:45;;;;;;;71.60;41.40;;;22.30;44.10;;;;;;5095223;28;20047;-82
2021/04/01 12:08:11;;;;;;;74.07;41.90;;;22.30;44.10;;;;;;5095810;28;20276;-82
2021/04/01 12:10:37;;;;;;;76.47;44.78;;;22.40;44.10;;;;;;5095699;28;20392;-82
2021/04/01 12:13:03;;;;;;;78.07;45.65;;;22.50;44.20;;;;;;5095748;28;20106;-83
2021/04/01 12:15:32;;;;;;;77.25;44.50;;;22.50;43.90;;;;;;5077596;28;20031;-82
2021/04/01 12:17:58;;;;;;;78.93;45.42;;;22.50;44.30;;;;;;5095689;28;20055;-83
2021/04/01 12:20:25;;;;;;;78.97;44.17;;;22.50;44.30;;;;;;5095320;28;20077;-82
2021/04/01 12:22:54;;;;;;;80.00;46.75;;;22.40;43.90;;;;;;5077680;28;20446;-82
2021/04/01 12:25:21;;;;;;;76.88;45.83;;;22.40;44.00;;;;;;5096082;28;20043;-83
2021/04/01 12:27:52;;;;;;;88.03;49.40;;;22.50;43.80;;;;;;5060810;28;20397;-82
2021/04/01 12:30:26;;;;;;;86.97;50.90;;;22.30;43.50;;;;;;5095294;28;20073;-82
2021/04/01 12:32:51;;;;;;;84.78;50.30;;;22.10;43.90;;;;;;5095148;28;20028;-82
2021/04/01 12:35:18;;;;;;;87.05;50.90;;;22.00;44.30;;;;;;5094976;28;20024;-83
2021/04/01 12:37:59;;;;;;;81.78;46.90;;;21.90;44.50;;;;;;5095365;28;20411;-82
2021/04/01 12:40:26;;;;;;;72.65;44.63;;;21.80;44.40;;;;;;5077123;28;20443;-82
2021/04/01 12:42:52;;;;;;;74.32;42.60;;;21.80;44.50;;;;;;5095062;28;20037;-82
2021/04/01 12:45:21;;;;;;;76.47;43.83;;;21.80;44.60;;;;;;5076410;28;20040;-82
2021/04/01 12:47:47;;;;;;;80.45;45.58;;;21.80;44.30;;;;;;5076638;28;20484;-82
2021/04/01 12:50:13;;;;;;;65.78;39.88;;;21.80;44.10;;;;;;5094620;28;20035;-82
2021/04/01 12:52:52;;;;;;;70.25;41.33;;;21.80;44.50;;;;;;5094591;28;20028;-82
2021/04/01 12:55:43;;;;;;;67.90;42.28;;;21.70;44.40;;;;;;5094630;28;20398;-83
2021/04/01 12:58:12;;;;;;;71.97;41.88;;;21.50;44.60;;;;;;5094758;28;20353;-83
2021/04/01 13:00:44;;;;;;;58.38;36.00;;;21.40;44.90;;;;;;5094482;28;20020;-82
2021/04/01 13:03:11;;;;;;;66.70;38.28;;;21.30;45.20;;;;;;5076767;28;20028;-83
2021/04/01 13:05:39;;;;;;;57.95;34.35;;;21.20;45.00;;;;;;5076908;28;20080;-82
2021/04/01 13:10:40;;;;;;;58.67;32.20;;;21.00;45.20;;;;;;5094542;28;20692;-83
2021/04/01 13:13:06;;;;;;;52.10;29.42;;;21.10;44.90;;;;;;5094604;28;20035;-82
2021/04/01 13:15:34;;;;;;;49.97;27.88;;;20.90;44.40;;;;;;5076580;28;20044;-82
2021/04/01 13:18:00;;;;;;;42.58;25.17;;;20.80;44.60;;;;;;5076751;28;20025;-82
2021/04/01 13:20:26;;;;;;;48.38;25.83;;;20.80;44.70;;;;;;5076413;28;20024;-83
2021/04/01 13:25:28;;;;;;;41.20;23.17;;;21.00;44.50;;;;;;5093966;28;20486;-83
2021/04/01 13:28:02;;;;;;;52.92;26.30;;;21.10;43.80;;;;;;5094051;28;20077;-82
2021/04/01 13:30:30;;;;;;;37.38;21.15;;;21.30;43.60;;;;;;5075904;28;20393;-83
2021/04/01 13:33:05;;;;;;;32.63;18.67;;;21.40;43.90;;;;;;5093965;28;20035;-83
2021/04/01 13:38:05;;;;;;;27.70;15.90;;;21.40;43.50;;;;;;5093972;28;20043;-82
2021/04/01 13:40:32;;;;;;;24.67;13.65;;;21.60;43.90;;;;;;5093913;28;20031;-83
2021/04/01 13:43:01;;;;;;;23.05;12.48;;;21.70;43.30;;;;;;5076036;28;20023;-82
2021/04/01 13:45:27;;;;;;;26.33;13.25;;;21.70;43.20;;;;;;5053794;28;20048;-83
2021/04/01 13:47:57;;;;;;;25.00;11.88;;;21.80;43.30;;;;;;5053658;28;20103;-82
2021/04/01 13:50:26;;;;;;;21.42;10.45;;;21.70;43.30;;;;;;5053770;28;20028;-83
2021/04/01 13:55:50;;;;;;;22.05;10.48;;;21.50;43.50;;;;;;5053573;28;20041;-82
2021/04/01 13:58:57;;;;;;;17.70;8.88;;;21.40;43.50;;;;;;5053087;28;20116;-82
2021/04/01 14:09:43;;;;;;;16.33;6.07;;;20.90;45.00;;;;;;5053255;28;20155;-82
2021/04/01 14:12:10;;;;;;;11.98;5.60;;;20.90;45.10;;;;;;5051812;28;20044;-83
2021/04/01 14:14:36;;;;;;;13.70;5.70;;;20.80;45.20;;;;;;5051830;28;20029;-83
2021/04/01 14:17:07;;;;;;;11.25;4.50;;;20.80;45.30;;;;;;5052135;28;20424;-83
2021/04/01 14:19:32;;;;;;;14.63;4.38;;;20.70;45.70;;;;;;5035718;28;20478;-83
2021/04/01 14:22:00;;;;;;;8.35;3.80;;;20.80;45.80;;;;;;5052030;28;20079;-82
2021/04/01 14:29:57;;;;;;;10.27;3.13;;;20.70;45.60;;;;;;5019478;28;20048;-83
2021/04/01 14:32:28;;;;;;;8.82;3.20;;;20.70;45.40;;;;;;5032293;28;20036;-82
2021/04/01 14:35:01;;;;;;;10.65;2.85;;;20.60;45.60;;;;;;5048532;28;20030;-83
2021/04/01 14:37:29;;;;;;;6.03;2.42;;;20.50;46.10;;;;;;5033031;28;20022;-83